Time,TemperatureF,DewpointF,PressureIn,WindDirection,WindDirectionDegrees,WindSpeedMPH,WindSpeedGustMPH,Humidity,HourlyPrecipIn,Conditions,Clouds,dailyrainin,SoftwareType,DateUTC
2013-01-13 00:00:00,37.4,34.5,29.97,NNE,16,6.0,7.0,89,0.00,,SKC,0.01,VWS V14.01,2013-01-13 06:00:00,
2013-01-13 00:05:00,37.3,34.4,29.96,North,5,2.0,7.0,89,0.00,,SKC,0.00,VWS V14.01,2013-01-13 06:05:00,
2013-01-13 00:11:00,37.1,34.2,29.96,WNW,283,3.0,10.0,89,0.00,,SKC,0.00,VWS V14.01,2013-01-13 06:11:00,
2013-01-13 00:17:00,37.0,34.1,29.97,NW,310,3.0,10.0,89,0.00,,SKC,0.00,VWS V14.01,2013-01-13 06:17:00,
2013-01-13 00:23:00,36.8,33.9,29.98,West,271,6.0,10.0,89,0.00,,SKC,0.00,VWS V14.01,2013-01-13 06:23:00,
2013-01-13 00:29:00,36.7,33.8,29.97,West,277,2.0,11.0,89,0.00,,SKC,0.00,VWS V14.01,2013-01-13 06:29:00,
2013-01-13 00:30:00,36.6,33.7,29.97,East,80,5.0,11.0,89,0.00,,SKC,0.00,VWS V14.01,2013-01-13 06:30:00,
2013-01-13 00:35:00,36.5,33.6,29.97,East,89,6.0,10.0,89,0.00,,SKC,0.00,VWS V14.01,2013-01-13 06:35:00,
2013-01-13 00:41:00,36.4,33.5,29.98,NNE,26,5.0,10.0,89,0.00,,SKC,0.00,VWS V14.01,2013-01-13 06:41:00,
2013-01-13 00:47:00,36.4,33.5,29.98,NNE,27,3.0,10.0,89,0.00,,SKC,0.00,VWS V14.01,2013-01-13 06:47:00,
2013-01-13 00:53:00,36.4,33.2,29.98,North,355,7.0,10.0,88,0.00,,SKC,0.00,VWS V14.01,2013-01-13 06:53:00,
2013-01-13 00:59:00,36.4,33.2,29.99,NNW,337,5.0,10.0,88,0.00,,SKC,0.00,VWS V14.01,2013-01-13 06:59:00,
2013-01-13 01:00:00,36.3,33.1,29.99,NW,317,3.0,11.0,88,0.00,,SKC,0.00,VWS V14.01,2013-01-13 07:00:00,
2013-01-13 01:05:00,36.3,33.1,30.00,NNW,328,2.0,12.0,88,0.00,,SKC,0.00,VWS V14.01,2013-01-13 07:05:00,
2013-01-13 01:11:00,36.4,33.2,29.99,East,86,1.0,12.0,88,0.00,,SKC,0.00,VWS V14.01,2013-01-13 07:11:00,
2013-01-13 01:17:00,36.4,33.2,30.00,WSW,257,1.0,12.0,88,0.00,,SKC,0.00,VWS V14.01,2013-01-13 07:17:00,
2013-01-13 01:23:00,36.3,33.1,29.99,NW,319,3.0,12.0,88,0.00,,SKC,0.00,VWS V14.01,2013-01-13 07:23:00,
2013-01-13 01:29:00,36.2,33.0,29.98,NNW,338,4.0,12.0,88,0.00,,SKC,0.00,VWS V14.01,2013-01-13 07:29:00,
2013-01-13 01:30:00,36.3,33.4,29.98,West,263,3.0,12.0,89,0.00,,SKC,0.00,VWS V14.01,2013-01-13 07:30:00,
2013-01-13 01:35:00,36.3,33.4,30.00,NW,308,5.0,5.0,89,0.00,,SKC,0.00,VWS V14.01,2013-01-13 07:35:00,
2013-01-13 01:41:00,36.1,32.9,30.00,NNW,346,4.0,8.0,88,0.00,,SKC,0.00,VWS V14.01,2013-01-13 07:41:00,
2013-01-13 01:47:00,36.0,32.8,30.02,NNW,331,6.0,8.0,88,0.00,,SKC,0.00,VWS V14.01,2013-01-13 07:47:00,
2013-01-13 01:53:00,35.8,32.6,30.02,NE,44,2.0,9.0,88,0.00,,SKC,0.00,VWS V14.01,2013-01-13 07:53:00,
2013-01-13 01:59:00,35.8,32.6,30.04,North,355,4.0,9.0,88,0.00,,SKC,0.00,VWS V14.01,2013-01-13 07:59:00,
2013-01-13 02:00:00,35.7,32.5,30.05,NW,304,5.0,9.0,88,0.00,,SKC,0.00,VWS V14.01,2013-01-13 08:00:00,
2013-01-13 02:05:00,35.6,32.1,30.06,SSW,211,3.0,8.0,87,0.00,,SKC,0.00,VWS V14.01,2013-01-13 08:05:00,
2013-01-13 02:11:00,35.6,32.1,30.07,NW,313,3.0,11.0,87,0.00,,SKC,0.00,VWS V14.01,2013-01-13 08:11:00,
2013-01-13 02:17:00,35.6,32.1,30.04,East,89,2.0,11.0,87,0.00,,SKC,0.00,VWS V14.01,2013-01-13 08:17:00,
2013-01-13 02:23:00,35.5,32.0,30.02,NW,311,4.0,11.0,87,0.00,,SKC,0.00,VWS V14.01,2013-01-13 08:23:00,
2013-01-13 02:29:00,35.5,32.0,30.04,WSW,244,4.0,11.0,87,0.00,,SKC,0.00,VWS V14.01,2013-01-13 08:29:00,
2013-01-13 02:30:00,35.5,32.0,30.04,NE,55,2.0,11.0,87,0.00,,SKC,0.00,VWS V14.01,2013-01-13 08:30:00,
2013-01-13 02:35:00,35.4,31.9,30.04,WNW,297,3.0,8.0,87,0.00,,SKC,0.00,VWS V14.01,2013-01-13 08:35:00,
2013-01-13 02:41:00,35.3,31.5,30.04,ESE,114,2.0,8.0,86,0.00,,SKC,0.00,VWS V14.01,2013-01-13 08:41:00,
2013-01-13 02:47:00,35.2,31.4,30.03,North,360,4.0,8.0,86,0.00,,SKC,0.00,VWS V14.01,2013-01-13 08:47:00,
2013-01-13 02:53:00,35.1,31.3,30.04,SSE,155,3.0,10.0,86,0.00,,SKC,0.00,VWS V14.01,2013-01-13 08:53:00,
2013-01-13 02:59:00,35.0,31.0,30.06,NE,47,8.0,10.0,85,0.00,,SKC,0.00,VWS V14.01,2013-01-13 08:59:00,
2013-01-13 03:00:00,34.9,30.9,30.07,ESE,107,2.0,10.0,85,0.00,,SKC,0.00,VWS V14.01,2013-01-13 09:00:00,
2013-01-13 03:05:00,35.0,31.0,30.08,WNW,302,4.0,7.0,85,0.00,,SKC,0.00,VWS V14.01,2013-01-13 09:05:00,
2013-01-13 03:11:00,35.0,31.0,30.05,ESE,109,3.0,7.0,85,0.00,,SKC,0.00,VWS V14.01,2013-01-13 09:11:00,
2013-01-13 03:17:00,34.7,30.7,30.08,WNW,284,5.0,9.0,85,0.00,,SKC,0.00,VWS V14.01,2013-01-13 09:17:00,
2013-01-13 03:23:00,34.7,30.4,30.06,NE,56,1.0,9.0,84,0.00,,SKC,0.00,VWS V14.01,2013-01-13 09:23:00,
2013-01-13 03:29:00,34.5,30.2,30.05,WSW,250,1.0,9.0,84,0.00,,SKC,0.00,VWS V14.01,2013-01-13 09:29:00,
2013-01-13 03:30:00,34.5,30.2,30.05,NNE,17,3.0,9.0,84,0.00,,SKC,0.00,VWS V14.01,2013-01-13 09:30:00,
2013-01-13 03:35:00,34.4,30.1,30.05,NE,55,4.0,10.0,84,0.00,,SKC,0.00,VWS V14.01,2013-01-13 09:35:00,
2013-01-13 03:41:00,34.4,29.8,30.07,North,9,2.0,10.0,83,0.00,,SKC,0.00,VWS V14.01,2013-01-13 09:41:00,
2013-01-13 03:47:00,34.4,29.8,30.06,NW,306,1.0,10.0,83,0.00,,SKC,0.00,VWS V14.01,2013-01-13 09:47:00,
2013-01-13 03:53:00,34.3,29.7,30.06,NNW,342,3.0,10.0,83,0.00,,SKC,0.00,VWS V14.01,2013-01-13 09:53:00,
2013-01-13 03:59:00,34.2,29.6,30.05,NW,311,3.0,13.0,83,0.00,,SKC,0.00,VWS V14.01,2013-01-13 09:59:00,
2013-01-13 04:00:00,34.2,29.6,30.06,WNW,291,2.0,13.0,83,0.00,,SKC,0.00,VWS V14.01,2013-01-13 10:00:00,
2013-01-13 04:05:00,34.1,29.5,30.06,ENE,59,2.0,5.0,83,0.00,,SKC,0.00,VWS V14.01,2013-01-13 10:05:00,
2013-01-13 04:11:00,34.1,29.5,30.06,SW,234,3.0,15.0,83,0.00,,SKC,0.00,VWS V14.01,2013-01-13 10:11:00,
2013-01-13 04:17:00,34.0,29.1,30.05,WNW,293,3.0,15.0,82,0.00,,SKC,0.00,VWS V14.01,2013-01-13 10:17:00,
2013-01-13 04:23:00,33.9,29.3,30.06,SW,236,4.0,15.0,83,0.00,,SKC,0.00,VWS V14.01,2013-01-13 10:23:00,
2013-01-13 04:29:00,34.0,29.4,30.05,NW,319,5.0,15.0,83,0.00,,SKC,0.00,VWS V14.01,2013-01-13 10:29:00,
2013-01-13 04:30:00,34.0,29.4,30.05,ESE,117,3.0,15.0,83,0.00,,SKC,0.00,VWS V14.01,2013-01-13 10:30:00,
2013-01-13 04:35:00,34.0,29.4,30.05,ENE,59,5.0,6.0,83,0.00,,SKC,0.00,VWS V14.01,2013-01-13 10:35:00,
2013-01-13 04:41:00,34.0,29.1,30.06,ESE,103,3.0,8.0,82,0.00,,SKC,0.00,VWS V14.01,2013-01-13 10:41:00,
2013-01-13 04:47:00,34.0,29.1,30.07,WNW,295,2.0,10.0,82,0.00,,SKC,0.00,VWS V14.01,2013-01-13 10:47:00,
2013-01-13 04:53:00,34.0,29.1,30.06,NE,56,2.0,10.0,82,0.00,,SKC,0.00,VWS V14.01,2013-01-13 10:53:00,
2013-01-13 04:59:00,34.0,29.1,30.05,NW,314,2.0,10.0,82,0.00,,SKC,0.00,VWS V14.01,2013-01-13 10:59:00,
2013-01-13 05:00:00,34.0,29.1,30.05,NE,46,3.0,10.0,82,0.00,,SKC,0.00,VWS V14.01,2013-01-13 11:00:00,
2013-01-13 05:05:00,34.0,29.1,30.07,North,355,2.0,8.0,82,0.00,,SKC,0.00,VWS V14.01,2013-01-13 11:05:00,
2013-01-13 05:11:00,34.0,29.1,30.09,West,279,6.0,8.0,82,0.00,,SKC,0.00,VWS V14.01,2013-01-13 11:11:00,
2013-01-13 05:17:00,33.9,29.0,30.07,SW,234,6.0,8.0,82,0.00,,SKC,0.00,VWS V14.01,2013-01-13 11:17:00,
2013-01-13 05:23:00,33.9,29.0,30.08,East,84,2.0,10.0,82,0.00,,SKC,0.00,VWS V14.01,2013-01-13 11:23:00,
2013-01-13 05:29:00,33.9,29.0,30.09,East,84,2.0,10.0,82,0.00,,SKC,0.00,VWS V14.01,2013-01-13 11:29:00,
2013-01-13 05:30:00,34.0,29.1,30.09,East,92,5.0,10.0,82,0.00,,SKC,0.00,VWS V14.01,2013-01-13 11:30:00,
2013-01-13 05:35:00,34.0,29.1,30.10,NW,305,3.0,9.0,82,0.00,,SKC,0.00,VWS V14.01,2013-01-13 11:35:00,
2013-01-13 05:41:00,34.0,28.8,30.08,North,355,4.0,9.0,81,0.00,,SKC,0.00,VWS V14.01,2013-01-13 11:41:00,
2013-01-13 05:47:00,33.9,28.7,30.08,SSE,149,2.0,9.0,81,0.00,,SKC,0.00,VWS V14.01,2013-01-13 11:47:00,
2013-01-13 05:53:00,34.0,29.1,30.09,West,270,2.0,9.0,82,0.00,,SKC,0.00,VWS V14.01,2013-01-13 11:53:00,
2013-01-13 05:59:00,33.9,29.0,30.11,North,360,4.0,10.0,82,0.00,,SKC,0.00,VWS V14.01,2013-01-13 11:59:00,
2013-01-13 06:00:00,33.9,29.0,30.11,South,169,3.0,10.0,82,0.00,,SKC,0.00,VWS V14.01,2013-01-13 12:00:00,
2013-01-13 06:05:00,33.9,29.0,30.11,NNW,329,4.0,6.0,82,0.00,,SKC,0.00,VWS V14.01,2013-01-13 12:05:00,
2013-01-13 06:11:00,33.9,29.0,30.11,SE,145,2.0,8.0,82,0.00,,SKC,0.00,VWS V14.01,2013-01-13 12:11:00,
2013-01-13 06:17:00,33.8,29.2,30.11,SW,234,3.0,12.0,83,0.00,,SKC,0.00,VWS V14.01,2013-01-13 12:17:00,
2013-01-13 06:23:00,33.6,28.7,30.12,East,95,2.0,12.0,82,0.00,,SKC,0.00,VWS V14.01,2013-01-13 12:23:00,
2013-01-13 06:29:00,33.4,28.5,30.13,NE,36,2.0,12.0,82,0.00,,SKC,0.00,VWS V14.01,2013-01-13 12:29:00,
2013-01-13 06:30:00,33.4,28.5,30.13,North,11,4.0,12.0,82,0.00,,SKC,0.00,VWS V14.01,2013-01-13 12:30:00,
2013-01-13 06:35:00,33.3,28.4,30.14,North,355,3.0,11.0,82,0.00,,SKC,0.00,VWS V14.01,2013-01-13 12:35:00,
2013-01-13 06:41:00,33.3,28.4,30.14,ENE,71,5.0,11.0,82,0.00,,SKC,0.00,VWS V14.01,2013-01-13 12:41:00,
2013-01-13 06:47:00,33.3,28.4,30.15,ESE,102,3.0,11.0,82,0.00,,SKC,0.00,VWS V14.01,2013-01-13 12:47:00,
2013-01-13 06:53:00,33.2,28.3,30.15,SSW,209,4.0,11.0,82,0.00,,SKC,0.00,VWS V14.01,2013-01-13 12:53:00,
2013-01-13 06:59:00,33.2,28.3,30.16,NNE,30,5.0,11.0,82,0.00,,SKC,0.00,VWS V14.01,2013-01-13 12:59:00,
2013-01-13 07:00:00,33.2,28.3,30.16,ESE,123,3.0,11.0,82,0.00,,SKC,0.00,VWS V14.01,2013-01-13 13:00:00,
2013-01-13 07:06:00,33.1,28.2,30.15,NE,47,5.0,8.0,82,0.00,,SKC,0.00,VWS V14.01,2013-01-13 13:06:00,
2013-01-13 07:12:00,33.2,28.3,30.16,North,360,6.0,8.0,82,0.00,,SKC,0.00,VWS V14.01,2013-01-13 13:12:00,
2013-01-13 07:18:00,33.2,28.3,30.16,NNE,24,4.0,8.0,82,0.00,,SKC,0.00,VWS V14.01,2013-01-13 13:18:00,
2013-01-13 07:24:00,33.2,28.0,30.17,East,84,5.0,8.0,81,0.00,,SKC,0.00,VWS V14.01,2013-01-13 13:24:00,
2013-01-13 07:30:00,33.3,28.1,30.18,East,98,2.0,8.0,81,0.00,,SKC,0.00,VWS V14.01,2013-01-13 13:30:00,
2013-01-13 07:36:00,33.4,28.5,30.18,NNE,33,7.0,7.0,82,0.00,,SKC,0.00,VWS V14.01,2013-01-13 13:36:00,
2013-01-13 07:42:00,33.4,28.5,30.18,NW,314,3.0,7.0,82,0.00,,SKC,0.00,VWS V14.01,2013-01-13 13:42:00,
2013-01-13 07:48:00,33.4,28.2,30.18,East,88,5.0,7.0,81,0.00,,SKC,0.00,VWS V14.01,2013-01-13 13:48:00,
2013-01-13 08:00:00,33.2,28.0,30.19,NNW,338,3.0,10.0,81,0.00,,SKC,0.00,VWS V14.01,2013-01-13 14:00:00,
2013-01-13 08:30:00,33.5,28.0,30.21,NW,315,3.0,12.0,80,0.00,,SKC,0.00,VWS V14.01,2013-01-13 14:30:00,
2013-01-13 09:00:00,33.9,28.1,30.23,NW,315,3.0,9.0,79,0.00,,SKC,0.00,VWS V14.01,2013-01-13 15:00:00,
2013-01-13 09:30:00,35.9,28.4,30.24,NW,315,3.0,10.0,74,0.00,,SKC,0.00,VWS V14.01,2013-01-13 15:30:00,
2013-01-13 10:00:00,37.0,28.8,30.26,NNW,338,4.0,13.0,72,0.00,,SKC,0.00,VWS V14.01,2013-01-13 16:00:00,
2013-01-13 10:30:00,36.9,28.7,30.27,NW,315,4.0,13.0,72,0.00,,SKC,0.00,VWS V14.01,2013-01-13 16:30:00,
2013-01-13 11:00:00,37.6,29.1,30.27,NW,315,4.0,13.0,71,0.01,,SKC,0.01,VWS V14.01,2013-01-13 17:00:00,
2013-01-13 11:30:00,38.6,29.0,30.26,NW,315,4.0,13.0,68,0.01,,SKC,0.01,VWS V14.01,2013-01-13 17:30:00,
2013-01-13 12:00:00,39.8,30.5,30.26,NNW,338,4.0,13.0,69,0.01,,SKC,0.01,VWS V14.01,2013-01-13 18:00:00,
2013-01-13 12:30:00,42.8,30.3,30.23,NNW,339,4.0,12.0,61,0.00,,SKC,0.01,VWS V14.01,2013-01-13 18:30:00,
2013-01-13 12:56:00,41.3,30.4,30.23,SE,132,4.0,6.0,65,0.00,,SKC,0.01,VWS V14.01,2013-01-13 18:56:00,
2013-01-13 13:00:00,41.5,30.6,30.24,SSE,149,1.0,7.0,65,0.00,,SKC,0.01,VWS V14.01,2013-01-13 19:00:00,
2013-01-13 13:02:00,41.6,30.7,30.24,NNW,341,3.0,4.0,65,0.00,,SKC,0.01,VWS V14.01,2013-01-13 19:02:00,
2013-01-13 13:08:00,41.7,30.0,30.24,North,355,3.0,12.0,63,0.00,,SKC,0.01,VWS V14.01,2013-01-13 19:08:00,
2013-01-13 13:14:00,41.9,30.6,30.23,South,169,1.0,12.0,64,0.00,,SKC,0.01,VWS V14.01,2013-01-13 19:14:00,
2013-01-13 13:20:00,42.2,30.5,30.23,NNW,343,4.0,12.0,63,0.00,,SKC,0.01,VWS V14.01,2013-01-13 19:20:00,
2013-01-13 13:26:00,42.4,30.3,30.23,ENE,63,1.0,12.0,62,0.00,,SKC,0.01,VWS V14.01,2013-01-13 19:26:00,
2013-01-13 13:30:00,42.8,30.3,30.23,NNW,339,4.0,12.0,61,0.00,,SKC,0.01,VWS V14.01,2013-01-13 19:30:00,
2013-01-13 13:32:00,42.8,29.9,30.22,ENE,63,7.0,7.0,60,0.00,,SKC,0.01,VWS V14.01,2013-01-13 19:32:00,
2013-01-13 13:38:00,42.5,30.0,30.23,NW,306,3.0,9.0,61,0.00,,SKC,0.01,VWS V14.01,2013-01-13 19:38:00,
2013-01-13 13:44:00,42.7,30.2,30.23,WNW,295,2.0,9.0,61,0.00,,SKC,0.01,VWS V14.01,2013-01-13 19:44:00,
2013-01-13 13:50:00,43.2,30.3,30.23,NNW,340,3.0,11.0,60,0.00,,SKC,0.01,VWS V14.01,2013-01-13 19:50:00,
2013-01-13 13:56:00,43.2,30.3,30.23,NW,310,5.0,11.0,60,0.00,,SKC,0.01,VWS V14.01,2013-01-13 19:56:00,
2013-01-13 14:00:00,43.1,29.8,30.23,NNE,27,5.0,12.0,59,0.00,,SKC,0.01,VWS V14.01,2013-01-13 20:00:00,
2013-01-13 14:02:00,43.1,30.2,30.23,NNW,342,2.0,5.0,60,0.00,,SKC,0.01,VWS V14.01,2013-01-13 20:02:00,
2013-01-13 14:08:00,42.9,30.0,30.23,East,88,3.0,9.0,60,0.00,,SKC,0.01,VWS V14.01,2013-01-13 20:08:00,
2013-01-13 14:14:00,43.2,30.7,30.23,East,83,2.0,9.0,61,0.00,,SKC,0.01,VWS V14.01,2013-01-13 20:14:00,
2013-01-13 14:20:00,43.6,30.6,30.23,East,85,3.0,10.0,60,0.00,,SKC,0.01,VWS V14.01,2013-01-13 20:20:00,
2013-01-13 14:26:00,43.7,30.3,30.23,WNW,300,5.0,10.0,59,0.00,,SKC,0.01,VWS V14.01,2013-01-13 20:26:00,
2013-01-13 14:30:00,43.6,30.2,30.23,NW,306,2.0,10.0,59,0.00,,SKC,0.01,VWS V14.01,2013-01-13 20:30:00,
2013-01-13 14:32:00,43.6,30.6,30.23,NW,321,3.0,5.0,60,0.00,,SKC,0.01,VWS V14.01,2013-01-13 20:32:00,
2013-01-13 14:38:00,43.8,30.4,30.23,WSW,258,4.0,7.0,59,0.00,,SKC,0.01,VWS V14.01,2013-01-13 20:38:00,
2013-01-13 14:44:00,44.2,30.4,30.23,ENE,71,4.0,8.0,58,0.00,,SKC,0.01,VWS V14.01,2013-01-13 20:44:00,
2013-01-13 14:50:00,43.8,30.0,30.23,ENE,59,2.0,8.0,58,0.00,,SKC,0.01,VWS V14.01,2013-01-13 20:50:00,
2013-01-13 14:56:00,44.2,30.0,30.23,NNW,337,3.0,8.0,57,0.00,,SKC,0.01,VWS V14.01,2013-01-13 20:56:00,
2013-01-13 15:00:00,44.0,29.8,30.22,WNW,300,3.0,10.0,57,0.00,,SKC,0.01,VWS V14.01,2013-01-13 21:00:00,
2013-01-13 15:02:00,43.8,30.0,30.22,NE,36,4.0,6.0,58,0.00,,SKC,0.01,VWS V14.01,2013-01-13 21:02:00,
2013-01-13 15:08:00,44.0,30.2,30.23,ENE,67,3.0,8.0,58,0.00,,SKC,0.01,VWS V14.01,2013-01-13 21:08:00,
2013-01-13 15:15:00,43.9,29.2,30.23,SE,129,2.0,8.0,56,0.00,,SKC,0.01,VWS V14.01,2013-01-13 21:15:00,
2013-01-13 15:21:00,43.9,30.1,30.24,WNW,303,6.0,8.0,58,0.00,,SKC,0.01,VWS V14.01,2013-01-13 21:21:00,
2013-01-13 15:27:00,44.1,29.9,30.24,ENE,65,3.0,12.0,57,0.00,,SKC,0.01,VWS V14.01,2013-01-13 21:27:00,
2013-01-13 15:30:00,44.0,29.8,30.24,SSE,148,2.0,12.0,57,0.00,,SKC,0.01,VWS V14.01,2013-01-13 21:30:00,
2013-01-13 15:33:00,44.1,30.3,30.24,ENE,67,2.0,6.0,58,0.00,,SKC,0.01,VWS V14.01,2013-01-13 21:33:00,
2013-01-13 15:39:00,44.1,29.0,30.24,SW,229,5.0,7.0,55,0.00,,SKC,0.01,VWS V14.01,2013-01-13 21:39:00,
2013-01-13 15:45:00,44.0,29.3,30.24,ESE,113,2.0,7.0,56,0.00,,SKC,0.01,VWS V14.01,2013-01-13 21:45:00,
2013-01-13 15:51:00,44.1,29.9,30.24,NW,319,3.0,7.0,57,0.00,,SKC,0.01,VWS V14.01,2013-01-13 21:51:00,
2013-01-13 15:57:00,43.8,28.2,30.25,NE,53,3.0,7.0,54,0.00,,SKC,0.01,VWS V14.01,2013-01-13 21:57:00,
2013-01-13 16:00:00,43.6,28.1,30.24,ESE,111,2.0,7.0,54,0.00,,SKC,0.01,VWS V14.01,2013-01-13 22:00:00,
2013-01-13 16:03:00,43.5,28.4,30.25,NW,313,2.0,6.0,55,0.00,,SKC,0.01,VWS V14.01,2013-01-13 22:03:00,
2013-01-13 16:09:00,43.1,28.5,30.25,NW,309,3.0,9.0,56,0.00,,SKC,0.01,VWS V14.01,2013-01-13 22:09:00,
2013-01-13 16:15:00,43.2,28.6,30.24,NNW,327,3.0,9.0,56,0.00,,SKC,0.01,VWS V14.01,2013-01-13 22:15:00,
2013-01-13 16:21:00,43.1,28.5,30.24,WNW,299,9.0,9.0,56,0.00,,SKC,0.01,VWS V14.01,2013-01-13 22:21:00,
2013-01-13 16:27:00,42.7,27.7,30.24,SSW,203,3.0,9.0,55,0.00,,SKC,0.01,VWS V14.01,2013-01-13 22:27:00,
2013-01-13 16:30:00,42.4,27.8,30.24,NE,51,4.0,9.0,56,0.00,,SKC,0.01,VWS V14.01,2013-01-13 22:30:00,
2013-01-13 16:33:00,42.4,27.4,30.24,NNE,22,8.0,8.0,55,0.00,,SKC,0.01,VWS V14.01,2013-01-13 22:33:00,
2013-01-13 16:39:00,42.3,27.3,30.24,North,350,2.0,9.0,55,0.00,,SKC,0.01,VWS V14.01,2013-01-13 22:39:00,
2013-01-13 16:45:00,42.2,27.6,30.25,NW,305,2.0,9.0,56,0.00,,SKC,0.01,VWS V14.01,2013-01-13 22:45:00,
2013-01-13 16:51:00,42.2,27.6,30.25,West,260,3.0,9.0,56,0.00,,SKC,0.01,VWS V14.01,2013-01-13 22:51:00,
2013-01-13 16:57:00,42.0,27.5,30.25,NW,311,4.0,9.0,56,0.00,,SKC,0.01,VWS V14.01,2013-01-13 22:57:00,
2013-01-13 17:00:00,41.8,27.3,30.25,NW,305,2.0,9.0,56,0.00,,SKC,0.01,VWS V14.01,2013-01-13 23:00:00,
2013-01-13 17:03:00,41.7,27.6,30.25,South,190,2.0,5.0,57,0.00,,SKC,0.01,VWS V14.01,2013-01-13 23:03:00,
2013-01-13 17:09:00,41.4,26.9,30.26,NNW,348,2.0,7.0,56,0.00,,SKC,0.01,VWS V14.01,2013-01-13 23:09:00,
2013-01-13 17:15:00,41.1,27.0,30.26,NE,41,3.0,7.0,57,0.00,,SKC,0.01,VWS V14.01,2013-01-13 23:15:00,
2013-01-13 17:21:00,40.7,26.7,30.26,NW,318,4.0,8.0,57,0.00,,SKC,0.01,VWS V14.01,2013-01-13 23:21:00,
2013-01-13 17:27:00,40.3,26.7,30.26,NNW,342,2.0,8.0,58,0.00,,SKC,0.01,VWS V14.01,2013-01-13 23:27:00,
2013-01-13 17:30:00,40.0,26.4,30.26,North,360,2.0,8.0,58,0.00,,SKC,0.01,VWS V14.01,2013-01-13 23:30:00,
2013-01-13 17:33:00,39.9,26.8,30.27,ENE,60,2.0,6.0,59,0.00,,SKC,0.01,VWS V14.01,2013-01-13 23:33:00,
2013-01-13 17:39:00,39.6,26.9,30.27,NW,325,2.0,6.0,60,0.00,,SKC,0.01,VWS V14.01,2013-01-13 23:39:00,
2013-01-13 17:45:00,39.3,26.6,30.27,South,188,2.0,6.0,60,0.00,,SKC,0.01,VWS V14.01,2013-01-13 23:45:00,
2013-01-13 17:51:00,38.9,26.6,30.26,NNW,347,1.0,6.0,61,0.00,,SKC,0.01,VWS V14.01,2013-01-13 23:51:00,
2013-01-13 17:57:00,38.6,26.7,30.26,West,279,1.0,6.0,62,0.00,,SKC,0.01,VWS V14.01,2013-01-13 23:57:00,
2013-01-13 18:00:00,38.4,26.5,30.26,NE,50,1.0,6.0,62,0.00,,SKC,0.01,VWS V14.01,2013-01-14 00:00:00,
2013-01-13 18:03:00,38.3,26.4,30.26,NW,312,3.0,3.0,62,0.00,,SKC,0.01,VWS V14.01,2013-01-14 00:03:00,
2013-01-13 18:09:00,38.0,26.5,30.26,NE,51,2.0,4.0,63,0.00,,SKC,0.01,VWS V14.01,2013-01-14 00:09:00,
2013-01-13 18:15:00,37.7,26.3,30.27,NNW,333,2.0,6.0,63,0.00,,SKC,0.01,VWS V14.01,2013-01-14 00:15:00,
2013-01-13 18:21:00,37.5,26.1,30.27,East,97,1.0,6.0,63,0.00,,SKC,0.01,VWS V14.01,2013-01-14 00:21:00,
2013-01-13 18:27:00,37.3,25.9,30.27,NNE,15,2.0,6.0,63,0.00,,SKC,0.01,VWS V14.01,2013-01-14 00:27:00,
2013-01-13 18:30:00,37.1,26.1,30.28,NE,36,3.0,6.0,64,0.00,,SKC,0.01,VWS V14.01,2013-01-14 00:30:00,
2013-01-13 18:33:00,37.0,26.0,30.28,North,5,2.0,4.0,64,0.00,,SKC,0.01,VWS V14.01,2013-01-14 00:33:00,
2013-01-13 18:39:00,36.7,26.1,30.27,NNW,333,2.0,6.0,65,0.00,,SKC,0.01,VWS V14.01,2013-01-14 00:39:00,
2013-01-13 18:45:00,36.5,25.9,30.27,ENE,57,5.0,6.0,65,0.00,,SKC,0.01,VWS V14.01,2013-01-14 00:45:00,
2013-01-13 18:51:00,36.3,26.0,30.28,North,355,5.0,6.0,66,0.00,,SKC,0.01,VWS V14.01,2013-01-14 00:51:00,
2013-01-13 18:57:00,36.1,25.9,30.28,NE,35,5.0,7.0,66,0.00,,SKC,0.01,VWS V14.01,2013-01-14 00:57:00,
2013-01-13 19:00:00,36.1,25.9,30.28,NE,40,3.0,7.0,66,0.00,,SKC,0.01,VWS V14.01,2013-01-14 01:00:00,
2013-01-13 19:03:00,36.0,25.4,30.28,NNE,33,5.0,7.0,65,0.00,,SKC,0.01,VWS V14.01,2013-01-14 01:03:00,
2013-01-13 19:09:00,35.9,25.3,30.28,NE,37,2.0,7.0,65,0.00,,SKC,0.01,VWS V14.01,2013-01-14 01:09:00,
2013-01-13 19:15:00,35.9,25.3,30.28,ENE,67,3.0,8.0,65,0.00,,SKC,0.01,VWS V14.01,2013-01-14 01:15:00,
2013-01-13 19:21:00,35.6,25.0,30.28,North,5,2.0,8.0,65,0.00,,SKC,0.01,VWS V14.01,2013-01-14 01:21:00,
2013-01-13 19:27:00,35.5,24.9,30.28,NE,40,2.0,8.0,65,0.00,,SKC,0.01,VWS V14.01,2013-01-14 01:27:00,
2013-01-13 19:30:00,35.4,24.8,30.29,NNE,28,2.0,8.0,65,0.00,,SKC,0.01,VWS V14.01,2013-01-14 01:30:00,
2013-01-13 19:33:00,35.3,24.7,30.29,NE,37,1.0,5.0,65,0.00,,SKC,0.01,VWS V14.01,2013-01-14 01:33:00,
2013-01-13 19:39:00,35.0,24.4,30.29,NE,55,1.0,5.0,65,0.00,,SKC,0.01,VWS V14.01,2013-01-14 01:39:00,
2013-01-13 19:45:00,34.8,24.6,30.29,NNE,24,2.0,5.0,66,0.00,,SKC,0.01,VWS V14.01,2013-01-14 01:45:00,
2013-01-13 19:51:00,34.6,24.8,30.30,NNE,28,1.0,5.0,67,0.00,,SKC,0.01,VWS V14.01,2013-01-14 01:51:00,
2013-01-13 19:57:00,34.4,24.6,30.30,NE,38,3.0,5.0,67,0.00,,SKC,0.01,VWS V14.01,2013-01-14 01:57:00,
2013-01-13 20:00:00,34.3,24.5,30.30,NE,54,2.0,5.0,67,0.00,,SKC,0.01,VWS V14.01,2013-01-14 02:00:00,
2013-01-13 20:03:00,34.3,24.5,30.30,NNE,33,2.0,4.0,67,0.00,,SKC,0.01,VWS V14.01,2013-01-14 02:03:00,
2013-01-13 20:09:00,34.1,24.3,30.30,NNE,15,2.0,5.0,67,0.00,,SKC,0.01,VWS V14.01,2013-01-14 02:09:00,
2013-01-13 20:15:00,34.1,24.3,30.30,East,83,2.0,5.0,67,0.00,,SKC,0.01,VWS V14.01,2013-01-14 02:15:00,
2013-01-13 20:21:00,33.9,24.1,30.30,ENE,60,1.0,6.0,67,0.00,,SKC,0.01,VWS V14.01,2013-01-14 02:21:00,
2013-01-13 20:27:00,33.8,24.0,30.30,WNW,302,2.0,6.0,67,0.00,,SKC,0.01,VWS V14.01,2013-01-14 02:27:00,
2013-01-13 20:30:00,33.8,24.0,30.30,WNW,299,2.0,6.0,67,0.00,,SKC,0.01,VWS V14.01,2013-01-14 02:30:00,
2013-01-13 20:33:00,33.7,23.9,30.30,NE,47,3.0,4.0,67,0.00,,SKC,0.01,VWS V14.01,2013-01-14 02:33:00,
2013-01-13 20:39:00,33.5,23.7,30.29,ENE,61,3.0,7.0,67,0.00,,SKC,0.01,VWS V14.01,2013-01-14 02:39:00,
2013-01-13 20:45:00,33.4,23.6,30.30,NW,317,2.0,7.0,67,0.00,,SKC,0.01,VWS V14.01,2013-01-14 02:45:00,
2013-01-13 20:51:00,33.3,23.9,30.30,NE,50,1.0,7.0,68,0.00,,SKC,0.01,VWS V14.01,2013-01-14 02:51:00,
2013-01-13 20:57:00,33.3,23.9,30.30,East,89,3.0,7.0,68,0.00,,SKC,0.01,VWS V14.01,2013-01-14 02:57:00,
2013-01-13 21:00:00,33.3,23.9,30.30,West,261,1.0,7.0,68,0.00,,SKC,0.01,VWS V14.01,2013-01-14 03:00:00,
2013-01-13 21:03:00,33.2,23.8,30.30,East,88,5.0,7.0,68,0.00,,SKC,0.01,VWS V14.01,2013-01-14 03:03:00,
2013-01-13 21:09:00,33.1,23.7,30.30,NE,48,2.0,7.0,68,0.00,,SKC,0.01,VWS V14.01,2013-01-14 03:09:00,
2013-01-13 21:15:00,33.0,23.6,30.30,NNW,338,3.0,7.0,68,0.00,,SKC,0.01,VWS V14.01,2013-01-14 03:15:00,
2013-01-13 21:21:00,33.0,24.0,30.31,NNE,16,4.0,7.0,69,0.00,,SKC,0.01,VWS V14.01,2013-01-14 03:21:00,
2013-01-13 21:27:00,32.9,23.9,30.31,ENE,61,3.0,7.0,69,0.00,,SKC,0.01,VWS V14.01,2013-01-14 03:27:00,
2013-01-13 21:30:00,32.8,23.8,30.31,East,82,5.0,8.0,69,0.00,,SKC,0.01,VWS V14.01,2013-01-14 03:30:00,
2013-01-13 21:33:00,32.8,23.8,30.31,NE,50,4.0,5.0,69,0.00,,SKC,0.01,VWS V14.01,2013-01-14 03:33:00,
2013-01-13 21:39:00,32.6,23.6,30.31,NNW,332,3.0,6.0,69,0.00,,SKC,0.01,VWS V14.01,2013-01-14 03:39:00,
2013-01-13 21:45:00,32.4,23.7,30.31,NE,42,3.0,7.0,70,0.00,,SKC,0.01,VWS V14.01,2013-01-14 03:45:00,
2013-01-13 21:51:00,32.3,23.6,30.31,East,84,2.0,7.0,70,0.00,,SKC,0.01,VWS V14.01,2013-01-14 03:51:00,
2013-01-13 21:57:00,32.1,23.4,30.31,NNE,24,6.0,7.0,70,0.00,,SKC,0.01,VWS V14.01,2013-01-14 03:57:00,
2013-01-13 22:00:00,32.1,23.4,30.31,NNE,32,2.0,7.0,70,0.00,,SKC,0.01,VWS V14.01,2013-01-14 04:00:00,
2013-01-13 22:03:00,32.0,23.3,30.31,NE,38,4.0,7.0,70,0.00,,SKC,0.01,VWS V14.01,2013-01-14 04:03:00,
2013-01-13 22:09:00,31.9,23.6,30.32,NNW,336,1.0,7.0,71,0.00,,SKC,0.01,VWS V14.01,2013-01-14 04:09:00,
2013-01-13 22:15:00,31.7,23.4,30.32,East,84,1.0,7.0,71,0.00,,SKC,0.01,VWS V14.01,2013-01-14 04:15:00,
2013-01-13 22:21:00,31.6,23.3,30.32,ENE,69,4.0,7.0,71,0.00,,SKC,0.01,VWS V14.01,2013-01-14 04:21:00,
2013-01-13 22:27:00,31.5,23.2,30.31,ESE,107,4.0,9.0,71,0.00,,SKC,0.01,VWS V14.01,2013-01-14 04:27:00,
2013-01-13 22:30:00,31.5,23.2,30.32,ESE,103,1.0,9.0,71,0.00,,SKC,0.01,VWS V14.01,2013-01-14 04:30:00,
2013-01-13 22:33:00,31.5,23.2,30.32,NNE,26,7.0,7.0,71,0.00,,SKC,0.01,VWS V14.01,2013-01-14 04:33:00,
2013-01-13 22:40:00,31.5,23.2,30.32,NNE,23,3.0,7.0,71,0.00,,SKC,0.01,VWS V14.01,2013-01-14 04:40:00,
2013-01-13 22:46:00,31.4,23.1,30.33,NW,313,4.0,9.0,71,0.00,,SKC,0.01,VWS V14.01,2013-01-14 04:46:00,
2013-01-13 22:52:00,31.4,23.1,30.33,SE,144,5.0,9.0,71,0.00,,SKC,0.01,VWS V14.01,2013-01-14 04:52:00,
2013-01-13 22:58:00,31.2,22.9,30.34,ENE,61,3.0,9.0,71,0.00,,SKC,0.01,VWS V14.01,2013-01-14 04:58:00,
2013-01-13 23:00:00,31.2,22.9,30.33,ENE,62,4.0,9.0,71,0.00,,SKC,0.01,VWS V14.01,2013-01-14 05:00:00,
2013-01-13 23:04:00,31.3,23.0,30.33,NNW,333,5.0,8.0,71,0.00,,SKC,0.01,VWS V14.01,2013-01-14 05:04:00,
2013-01-13 23:07:00,31.2,22.9,30.33,NNE,29,5.0,9.0,71,0.00,,SKC,0.01,VWS V14.01,2013-01-14 05:07:00,
2013-01-13 23:13:00,31.1,24.4,30.33,North,355,2.0,9.0,76,0.00,,SKC,0.01,VWS V14.01,2013-01-14 05:13:00,
2013-01-13 23:16:00,31.1,22.8,30.33,NNE,25,6.0,9.0,71,0.00,,SKC,0.01,VWS V14.01,2013-01-14 05:16:00,
2013-01-13 23:22:00,30.9,22.6,30.34,NE,53,3.0,9.0,71,0.00,,SKC,0.01,VWS V14.01,2013-01-14 05:22:00,
2013-01-13 23:25:00,30.9,22.6,30.34,ESE,123,4.0,9.0,71,0.00,,SKC,0.01,VWS V14.01,2013-01-14 05:25:00,
2013-01-13 23:30:00,30.7,22.8,30.34,NE,34,2.0,9.0,72,0.00,,SKC,0.01,VWS V14.01,2013-01-14 05:30:00,
2013-01-13 23:31:00,30.7,22.8,30.34,NE,34,2.0,9.0,72,0.00,,SKC,0.01,VWS V14.01,2013-01-14 05:31:00,
2013-01-13 23:37:00,30.5,22.6,30.35,North,355,7.0,7.0,72,0.00,,SKC,0.01,VWS V14.01,2013-01-14 05:37:00,
2013-01-13 23:43:00,30.3,22.4,30.35,North,5,6.0,11.0,72,0.00,,SKC,0.01,VWS V14.01,2013-01-14 05:43:00,
2013-01-13 23:49:00,30.2,22.3,30.34,NE,38,4.0,11.0,72,0.00,,SKC,0.01,VWS V14.01,2013-01-14 05:49:00,
2013-01-13 23:55:00,30.1,22.2,30.34,NNE,30,4.0,11.0,72,0.00,,SKC,0.01,VWS V14.01,2013-01-14 05:55:00,